Minneapolis, MN (55431)

6:45 PM CDT on August 20, 2014 (GMT -0500)
South Central Bloomington | Change Station
CLOSE
Current Station
Personal Weather Station
Location: Bloomington, MN
Elevation: 800 ft
Nearby Weather Stations

Elev 800 ft 44.81 °N, 93.31 °W | Updated 0 second ago

Partly Cloudy
Partly Cloudy
79.4 °F
Feels Like 82 °F
N
0.0
Wind Variable Wind from South
Gusts 4.0 mph

Today
High -- | Low -- °F
--% Chance of Precip.
Yesterday
High -- | Low -- °F
Precip. -- in
6:21 AM 8:11 PM
Waning Crescent, 18% visible
Pressure 29.83 in
Visibility 10.0 miles
Clouds Few 3500 ft
Few 24000 ft
Mostly Cloudy 30000 ft
Heat Index 82 °F
Dew Point 70 °F
Humidity 72%
Rainfall 0.00 in
Snow Depth Not available.
UV 1 out of 12
Pollen 8.90 out of 12
Ozone Good
PM2.5 Good
Flu Activity Not available.
METAR KMSP 202253Z 11008KT 10SM FEW035 FEW240 BKN300 28/19 A2984 RMK AO2 SLP100 T02780189

More Conditions Fewer Conditions

Pressure 29.83 in
Visibility 10.0 miles
Clouds Few 3500 ft
Few 24000 ft
Mostly Cloudy 30000 ft
Heat Index 82 °F
Dew Point 70 °F
Humidity 72%
Rainfall 0.00 in
Snow Depth Not available.
UV 1 out of 12
Pollen 8.90 out of 12
Ozone Good
PM2.5 Good
Flu Activity Not available.
METAR KMSP 202253Z 11008KT 10SM FEW035 FEW240 BKN300 28/19 A2984 RMK AO2 SLP100 T02780189

More Conditions Fewer Conditions

10-Day Weather Forecast

Almanac

Astronomy

Aug. 20, 2014 Rise Set
Actual Time 6:21 AM CDT 8:11 PM CDT
Civil Twilight 5:50 AM CDT 8:42 PM CDT
Nautical Twilight 5:11 AM CDT 9:20 PM CDT
Astronomical Twilight 4:30 AM CDT 10:01 PM CDT
Moon 1:57 AM CDT 5:00 PM CDT
Length of Visible Light 14h 52m
Length of Day
13h 49m
Tomorrow will be 2m 53s shorter.
Waning Crescent, 18% of the Moon is Illuminated
Today
Waning Crescent
Aug 25
New
Sep 2
First Quarter
Sep 8
Full
Sep 15
Last Quarter

Today's Extremes

State Highs State Lows

Community

WunderPhotos

Upload Photos

1,745,801 photos uploaded!

Nearby

Air Quality

  Air Quality AQ Index Pollutant
Yesterday Good
OZONE
Yesterday Good
PM2.5
Current Good
OZONE
Current Good
PM2.5
Wednesday Moderate
OZONE
Wednesday Good
PM2.5
Thursday Good
PM2.5
Thursday Good
OZONE
Friday Moderate
OZONE
Friday Good
PM2.5
Saturday Good
OZONE
Saturday Good
PM2.5
Sunday Good
OZONE
Sunday Good
PM2.5
Monday Good
OZONE
Monday Good
PM2.5

Snow Depth

Station Depth Elevation
No new snow has been reported.

Earthquake Activity

City Distance Mag. Time & Date
No recent earthquake activity has been reported nearby.
Minimum magnitude displayed is 2.5.

Coastal Water Temperatures

Place Temperature
No Stations Reporting

Nearby Weather Stations